createdAt,value
2018-11-05T00:00:31.860Z,11.60
2018-11-05T00:01:05.028Z,11.70
2018-11-05T00:01:37.586Z,11.60
2018-11-05T00:02:10.189Z,11.60
2018-11-05T00:02:42.913Z,11.60
2018-11-05T00:03:15.477Z,11.60
2018-11-05T00:03:48.097Z,11.50
2018-11-05T00:04:20.646Z,11.60
2018-11-05T00:04:53.236Z,11.50
2018-11-05T00:05:25.840Z,11.50
2018-11-05T00:05:58.406Z,11.60
2018-11-05T00:06:30.996Z,11.50
2018-11-05T00:07:04.035Z,11.60
2018-11-05T00:07:36.627Z,11.50
2018-11-05T00:08:09.188Z,11.50
2018-11-05T00:08:41.742Z,11.50
2018-11-05T00:09:14.311Z,11.50
2018-11-05T00:09:46.855Z,11.50
2018-11-05T00:10:19.469Z,11.50
2018-11-05T00:10:52.023Z,11.50
2018-11-05T00:11:24.627Z,11.50
2018-11-05T00:11:57.190Z,11.50
2018-11-05T00:12:29.768Z,11.50
2018-11-05T00:13:02.335Z,11.50
2018-11-05T00:13:34.948Z,11.60
2018-11-05T00:14:08.016Z,11.50
2018-11-05T00:14:40.563Z,11.50
2018-11-05T00:15:13.171Z,11.50
2018-11-05T00:15:45.730Z,11.50
2018-11-05T00:16:18.306Z,11.50
2018-11-05T00:16:50.911Z,11.50
2018-11-05T00:17:23.483Z,11.50
2018-11-05T00:17:56.109Z,11.50
2018-11-05T00:18:28.667Z,11.50
2018-11-05T00:19:01.283Z,11.50
2018-11-05T00:19:33.892Z,11.50
2018-11-05T00:20:07.811Z,11.50
2018-11-05T00:20:40.418Z,11.50
2018-11-05T00:21:13.010Z,11.50
2018-11-05T00:21:45.587Z,11.50
2018-11-05T00:22:18.161Z,11.50
2018-11-05T00:22:50.730Z,11.50
2018-11-05T00:23:23.296Z,11.50
2018-11-05T00:23:55.883Z,11.50
2018-11-05T00:24:28.503Z,11.50
2018-11-05T00:25:01.071Z,11.50
2018-11-05T00:25:33.652Z,11.40
2018-11-05T00:26:06.319Z,11.40
2018-11-05T00:26:38.916Z,11.40
2018-11-05T00:27:11.467Z,11.40
2018-11-05T00:27:44.114Z,11.40
2018-11-05T00:28:16.678Z,11.50
2018-11-05T00:28:49.239Z,11.40
2018-11-05T00:29:21.814Z,11.50
2018-11-05T00:29:54.407Z,11.50
2018-11-05T00:30:26.992Z,11.50
2018-11-05T00:30:59.554Z,11.50
2018-11-05T00:31:32.114Z,11.50
2018-11-05T00:32:04.798Z,11.50
2018-11-05T00:32:37.400Z,11.50
2018-11-05T00:33:09.979Z,11.50
2018-11-05T00:33:42.531Z,11.50
2018-11-05T00:34:15.086Z,11.50
2018-11-05T00:34:47.635Z,11.50
2018-11-05T00:35:20.202Z,11.50
2018-11-05T00:35:52.796Z,11.50
2018-11-05T00:36:25.344Z,11.50
2018-11-05T00:36:57.899Z,11.40
2018-11-05T00:37:30.467Z,11.40
2018-11-05T00:38:03.061Z,11.40
2018-11-05T00:38:35.674Z,11.40
2018-11-05T00:39:09.940Z,11.40
2018-11-05T00:39:42.490Z,11.50
2018-11-05T00:40:15.823Z,11.50
2018-11-05T00:40:48.375Z,11.40
2018-11-05T00:41:20.983Z,11.50
2018-11-05T00:41:53.597Z,11.50
2018-11-05T00:42:26.195Z,11.50
2018-11-05T00:42:58.765Z,11.50
2018-11-05T00:43:31.316Z,11.50
2018-11-05T00:44:03.978Z,11.50
2018-11-05T00:44:36.534Z,11.50
2018-11-05T00:45:10.165Z,11.50
2018-11-05T00:45:42.841Z,11.50
2018-11-05T00:46:15.362Z,11.50
2018-11-05T00:46:47.951Z,11.50
2018-11-05T00:47:20.550Z,11.50
2018-11-05T00:47:53.114Z,11.50
2018-11-05T00:48:25.681Z,11.60
2018-11-05T00:48:58.230Z,11.60
2018-11-05T00:49:30.810Z,11.50
2018-11-05T00:50:05.446Z,11.50
2018-11-05T00:50:38.024Z,11.50
2018-11-05T00:51:10.624Z,11.50
2018-11-05T00:51:43.210Z,11.50
2018-11-05T00:52:15.803Z,11.60
2018-11-05T00:52:48.395Z,11.60
2018-11-05T00:53:20.984Z,11.60
2018-11-05T00:53:53.530Z,11.60
2018-11-05T00:54:26.095Z,11.60
2018-11-05T00:54:58.735Z,11.60
2018-11-05T00:55:31.708Z,11.60
2018-11-05T00:56:04.299Z,11.60
2018-11-05T00:56:36.846Z,11.60
2018-11-05T00:57:09.403Z,11.60
2018-11-05T00:57:41.990Z,11.60
2018-11-05T00:58:14.562Z,11.60
2018-11-05T00:58:47.128Z,11.60
2018-11-05T00:59:19.714Z,11.50
2018-11-05T00:59:52.284Z,11.60
2018-11-05T01:00:24.895Z,11.50
2018-11-05T01:00:57.454Z,11.50
2018-11-05T01:01:30.015Z,11.50
2018-11-05T01:02:02.643Z,11.50
2018-11-05T01:02:35.257Z,11.50
2018-11-05T01:03:07.807Z,11.50
2018-11-05T01:03:40.411Z,11.50
2018-11-05T01:04:13.046Z,11.50
2018-11-05T01:04:45.599Z,11.50
2018-11-05T01:05:18.226Z,11.50
2018-11-05T01:05:50.823Z,11.50
2018-11-05T01:06:23.418Z,11.40
2018-11-05T01:09:56.337Z,11.40
2018-11-05T01:10:28.884Z,11.40
2018-11-05T01:11:01.495Z,11.40
2018-11-05T01:11:34.078Z,11.40
2018-11-05T01:12:06.840Z,11.40
2018-11-05T01:12:39.431Z,11.40
2018-11-05T01:13:11.970Z,11.40
2018-11-05T01:13:44.526Z,11.40
2018-11-05T01:14:17.097Z,11.40
2018-11-05T01:14:49.679Z,11.40
2018-11-05T01:15:22.269Z,11.40
2018-11-05T01:15:54.835Z,11.40
2018-11-05T01:16:27.440Z,11.40
2018-11-05T01:17:00.005Z,11.40
2018-11-05T01:17:32.558Z,11.40
2018-11-05T01:18:05.152Z,11.40
2018-11-05T01:18:37.692Z,11.40
2018-11-05T01:19:10.257Z,11.50
2018-11-05T01:19:42.839Z,11.40
2018-11-05T01:20:15.970Z,11.40
2018-11-05T01:20:48.532Z,11.50
2018-11-05T01:21:21.094Z,11.40
2018-11-05T01:21:53.673Z,11.50
2018-11-05T01:22:26.227Z,11.40
2018-11-05T01:22:58.811Z,11.40
2018-11-05T01:23:31.404Z,11.40
2018-11-05T01:24:04.315Z,11.40
2018-11-05T01:24:36.906Z,11.40
2018-11-05T01:25:09.537Z,11.40
2018-11-05T01:25:42.107Z,11.40
2018-11-05T01:26:14.654Z,11.40
2018-11-05T01:26:47.223Z,11.40
2018-11-05T01:27:19.789Z,11.40
2018-11-05T01:27:52.384Z,11.40
2018-11-05T01:28:24.959Z,11.40
2018-11-05T01:28:57.523Z,11.40
2018-11-05T01:29:30.058Z,11.40
2018-11-05T01:30:02.977Z,11.40
2018-11-05T01:30:35.564Z,11.40
2018-11-05T01:31:08.115Z,11.40
2018-11-05T01:31:40.761Z,11.40
2018-11-05T01:32:13.361Z,11.40
2018-11-05T01:32:45.957Z,11.40
2018-11-05T01:33:18.590Z,11.40
2018-11-05T01:33:51.150Z,11.40
2018-11-05T01:34:23.706Z,11.40
2018-11-05T01:34:56.258Z,11.40
2018-11-05T01:35:28.873Z,11.40
2018-11-05T01:36:01.535Z,11.40
2018-11-05T01:36:34.127Z,11.40
2018-11-05T01:37:06.710Z,11.50
2018-11-05T01:37:39.298Z,11.50
2018-11-05T01:38:11.907Z,11.50
2018-11-05T01:38:44.486Z,11.50
2018-11-05T01:39:17.067Z,11.50
2018-11-05T01:39:49.634Z,11.50
2018-11-05T01:40:22.190Z,11.50
2018-11-05T01:40:54.765Z,11.60
2018-11-05T01:41:27.310Z,11.50
2018-11-05T01:41:59.883Z,11.50
2018-11-05T01:42:32.431Z,11.50
2018-11-05T01:43:05.044Z,11.50
2018-11-05T01:43:37.712Z,11.50
2018-11-05T01:44:10.266Z,11.50
2018-11-05T01:44:42.879Z,11.50
2018-11-05T01:45:15.459Z,11.50
2018-11-05T01:45:48.014Z,11.50
2018-11-05T01:46:20.582Z,11.50
2018-11-05T01:46:53.307Z,11.50
2018-11-05T01:47:25.934Z,11.50
2018-11-05T01:47:58.486Z,11.50
2018-11-05T01:48:31.078Z,11.50
2018-11-05T01:49:03.752Z,11.40
2018-11-05T01:49:36.342Z,11.40
2018-11-05T01:50:10.727Z,11.40
2018-11-05T01:50:43.309Z,11.50
2018-11-05T01:51:15.890Z,11.50
2018-11-05T01:51:48.450Z,11.40
2018-11-05T01:52:21.009Z,11.40
2018-11-05T01:52:53.554Z,11.40
2018-11-05T01:53:26.110Z,11.40
2018-11-05T01:53:58.671Z,11.40
2018-11-05T01:54:31.251Z,11.40
2018-11-05T01:55:04.276Z,11.40
2018-11-05T01:55:36.877Z,11.40
2018-11-05T01:56:09.462Z,11.40
2018-11-05T01:56:42.002Z,11.40
2018-11-05T01:57:14.567Z,11.40
2018-11-05T01:57:47.134Z,11.40
2018-11-05T01:58:19.694Z,11.40
2018-11-05T01:58:52.275Z,11.40
2018-11-05T01:59:25.129Z,11.40
2018-11-05T01:59:57.790Z,11.40
2018-11-05T02:00:30.369Z,11.40
2018-11-05T02:01:03.031Z,11.40
2018-11-05T02:01:35.639Z,11.40
2018-11-05T02:02:08.244Z,11.40
2018-11-05T02:02:40.834Z,11.40
2018-11-05T02:03:13.375Z,11.40
2018-11-05T02:03:45.975Z,11.40
2018-11-05T02:04:18.533Z,11.40
2018-11-05T02:04:51.159Z,11.40
2018-11-05T02:05:23.782Z,11.40
2018-11-05T02:05:56.384Z,11.40
2018-11-05T02:06:28.977Z,11.40
2018-11-05T02:07:01.543Z,11.40
2018-11-05T02:07:34.110Z,11.40
2018-11-05T02:08:06.707Z,11.40
2018-11-05T02:08:39.250Z,11.40
2018-11-05T02:09:11.898Z,11.40
2018-11-05T02:09:44.454Z,11.40
2018-11-05T02:10:18.001Z,11.40
2018-11-05T02:10:50.534Z,11.50
2018-11-05T02:11:23.098Z,11.40
2018-11-05T02:11:55.690Z,11.50
2018-11-05T02:12:28.487Z,11.50
2018-11-05T02:13:01.076Z,11.50
2018-11-05T02:13:33.746Z,11.50
2018-11-05T02:14:06.326Z,11.50
2018-11-05T02:14:38.892Z,11.50
2018-11-05T02:15:11.914Z,11.50
2018-11-05T02:15:44.486Z,11.50
2018-11-05T02:16:17.090Z,11.50
2018-11-05T02:16:49.646Z,11.50
2018-11-05T02:17:22.216Z,11.50
2018-11-05T02:17:54.771Z,11.50
2018-11-05T02:18:27.346Z,11.40
2018-11-05T02:18:59.952Z,11.50
2018-11-05T02:19:32.584Z,11.40
2018-11-05T02:20:05.612Z,11.50
2018-11-05T02:20:38.220Z,11.40
2018-11-05T02:21:10.854Z,11.40
2018-11-05T02:21:43.443Z,11.50
2018-11-05T02:22:15.985Z,11.50
2018-11-05T02:22:48.594Z,11.40
2018-11-05T02:23:21.154Z,11.40
2018-11-05T02:23:53.691Z,11.40
2018-11-05T02:24:26.299Z,11.40
2018-11-05T02:24:58.893Z,11.40
2018-11-05T02:25:31.446Z,11.40
2018-11-05T02:26:04.207Z,11.40
2018-11-05T02:26:37.040Z,11.40
2018-11-05T02:27:09.762Z,11.40
2018-11-05T02:27:42.511Z,11.40
2018-11-05T02:28:15.094Z,11.40
2018-11-05T02:28:47.690Z,11.40
2018-11-05T02:29:20.283Z,11.40
2018-11-05T02:29:52.872Z,11.40
2018-11-05T02:30:25.446Z,11.40
2018-11-05T02:30:58.010Z,11.40
2018-11-05T02:31:30.611Z,11.40
2018-11-05T02:32:03.242Z,11.50
2018-11-05T02:32:35.854Z,11.40
2018-11-05T02:33:08.422Z,11.50
2018-11-05T02:33:40.980Z,11.40
2018-11-05T02:34:13.534Z,11.40
2018-11-05T02:34:46.082Z,11.40
2018-11-05T02:35:18.713Z,11.50
2018-11-05T02:35:51.263Z,11.40
2018-11-05T02:36:23.843Z,11.40
2018-11-05T02:36:56.427Z,11.40
2018-11-05T02:37:29.019Z,11.40
2018-11-05T02:38:01.618Z,11.50
2018-11-05T02:38:34.170Z,11.50
2018-11-05T02:39:07.663Z,11.50
2018-11-05T02:39:40.235Z,11.50
2018-11-05T02:40:14.970Z,11.50
2018-11-05T02:40:47.542Z,11.50
2018-11-05T02:41:20.073Z,11.50
2018-11-05T02:41:52.679Z,11.50
2018-11-05T02:42:25.789Z,11.50
2018-11-05T02:42:58.377Z,11.50
2018-11-05T02:43:30.964Z,11.50
2018-11-05T02:44:04.028Z,11.50
2018-11-05T02:44:36.588Z,11.50
2018-11-05T02:45:10.594Z,11.50
2018-11-05T02:45:43.159Z,11.50
2018-11-05T02:46:15.734Z,11.50
2018-11-05T02:46:48.452Z,11.50
2018-11-05T02:47:21.043Z,11.50
2018-11-05T02:47:53.612Z,11.50
2018-11-05T02:48:26.200Z,11.40
2018-11-05T02:48:58.776Z,11.40
2018-11-05T02:49:31.362Z,11.50
2018-11-05T02:50:04.320Z,11.40
2018-11-05T02:50:36.960Z,11.50
2018-11-05T02:51:09.519Z,11.50
2018-11-05T02:51:42.156Z,11.50
2018-11-05T02:52:14.777Z,11.50
2018-11-05T02:52:47.691Z,11.50
2018-11-05T02:53:20.251Z,11.50
2018-11-05T02:53:52.830Z,11.50
2018-11-05T02:54:25.419Z,11.50
2018-11-05T02:54:58.006Z,11.50
2018-11-05T02:55:30.592Z,11.50
2018-11-05T02:56:09.767Z,11.50
2018-11-05T02:56:42.490Z,11.50
2018-11-05T02:57:15.078Z,11.50
2018-11-05T02:57:47.668Z,11.50
2018-11-05T02:58:20.228Z,11.50
2018-11-05T02:58:52.780Z,11.50
2018-11-05T02:59:25.379Z,11.50
2018-11-05T02:59:57.938Z,11.50
2018-11-05T03:00:30.527Z,11.50
2018-11-05T03:01:03.095Z,11.50
2018-11-05T03:01:35.687Z,11.50
2018-11-05T03:02:08.297Z,11.50
2018-11-05T03:02:41.090Z,11.40
2018-11-05T03:03:13.731Z,11.40
2018-11-05T03:03:46.230Z,11.40
2018-11-05T03:04:18.825Z,11.40
2018-11-05T03:04:51.387Z,11.50
2018-11-05T03:05:24.058Z,11.50
2018-11-05T03:05:56.630Z,11.50
2018-11-05T03:06:29.215Z,11.40
2018-11-05T03:07:01.841Z,11.40
2018-11-05T03:07:34.402Z,11.40
2018-11-05T03:08:06.977Z,11.40
2018-11-05T03:08:39.546Z,11.40
2018-11-05T03:09:12.500Z,11.40
2018-11-05T03:09:45.124Z,11.30
2018-11-05T03:10:17.813Z,11.40
2018-11-05T03:10:50.415Z,11.30
2018-11-05T03:11:23.001Z,11.40
2018-11-05T03:11:55.566Z,11.30
2018-11-05T03:12:28.123Z,11.30
2018-11-05T03:13:00.671Z,11.30
2018-11-05T03:13:33.277Z,11.30
2018-11-05T03:14:06.159Z,11.30
2018-11-05T03:14:38.733Z,11.30
2018-11-05T03:15:13.451Z,11.30
2018-11-05T03:15:46.071Z,11.30
2018-11-05T03:16:18.730Z,11.30
2018-11-05T03:16:51.308Z,11.30
2018-11-05T03:17:23.903Z,11.30
2018-11-05T03:17:56.505Z,11.30
2018-11-05T03:18:29.094Z,11.30
2018-11-05T03:19:01.658Z,11.30
2018-11-05T03:19:34.249Z,11.30
2018-11-05T03:20:08.233Z,11.30
2018-11-05T03:20:40.803Z,11.30
2018-11-05T03:21:13.375Z,11.30
2018-11-05T03:21:45.954Z,11.30
2018-11-05T03:22:18.525Z,11.30
2018-11-05T03:22:51.078Z,11.30
2018-11-05T03:23:23.684Z,11.30
2018-11-05T03:24:03.241Z,11.30
2018-11-05T03:24:35.835Z,11.30
2018-11-05T03:25:08.582Z,11.30
2018-11-05T03:25:41.146Z,11.40
2018-11-05T03:26:13.728Z,11.30
2018-11-05T03:26:46.354Z,11.30
2018-11-05T03:27:18.963Z,11.40
2018-11-05T03:27:51.506Z,11.40
2018-11-05T03:28:24.104Z,11.40
2018-11-05T03:28:56.682Z,11.40
2018-11-05T03:29:29.291Z,11.40
2018-11-05T03:30:01.930Z,11.40
2018-11-05T03:30:34.501Z,11.40
2018-11-05T03:31:07.081Z,11.40
2018-11-05T03:31:39.635Z,11.40
2018-11-05T03:32:12.211Z,11.40
2018-11-05T03:32:44.813Z,11.40
2018-11-05T03:33:17.359Z,11.40
2018-11-05T03:33:49.990Z,11.40
2018-11-05T03:34:22.592Z,11.30
2018-11-05T03:34:55.146Z,11.40
2018-11-05T03:35:27.752Z,11.40
2018-11-05T03:36:00.387Z,11.40
2018-11-05T03:36:32.891Z,11.40
2018-11-05T03:37:05.519Z,11.30
2018-11-05T03:37:38.687Z,11.30
2018-11-05T03:38:11.294Z,11.30
2018-11-05T03:38:43.892Z,11.30
2018-11-05T03:39:16.471Z,11.30
2018-11-05T03:39:49.079Z,11.30
2018-11-05T03:40:21.650Z,11.30
2018-11-05T03:40:54.235Z,11.30
2018-11-05T03:41:26.899Z,11.30
2018-11-05T03:41:59.572Z,11.30
2018-11-05T03:42:32.147Z,11.30
2018-11-05T03:43:04.830Z,11.30
2018-11-05T03:43:37.415Z,11.30
2018-11-05T03:44:10.193Z,11.30
2018-11-05T03:44:42.792Z,11.30
2018-11-05T03:45:16.104Z,11.30
2018-11-05T03:45:48.687Z,11.30
2018-11-05T03:46:21.278Z,11.30
2018-11-05T03:46:53.883Z,11.30
2018-11-05T03:47:26.481Z,11.30
2018-11-05T03:47:59.043Z,11.30
2018-11-05T03:48:31.646Z,11.30
2018-11-05T03:49:05.147Z,11.30
2018-11-05T03:49:41.580Z,11.30
2018-11-05T03:50:16.538Z,11.30
2018-11-05T03:50:49.107Z,11.30
2018-11-05T03:51:21.699Z,11.30
2018-11-05T03:51:54.278Z,11.30
2018-11-05T03:52:26.825Z,11.30
2018-11-05T03:52:59.390Z,11.30
2018-11-05T03:53:32.006Z,11.30
2018-11-05T03:54:05.332Z,11.30
2018-11-05T03:54:37.909Z,11.30
2018-11-05T03:55:10.543Z,11.30
2018-11-05T03:55:43.175Z,11.30
2018-11-05T03:56:15.847Z,11.30
2018-11-05T03:56:48.411Z,11.30
2018-11-05T03:57:20.839Z,11.30
2018-11-05T03:57:53.410Z,11.20
2018-11-05T03:58:25.978Z,11.20
2018-11-05T03:58:58.600Z,11.30
2018-11-05T03:59:31.534Z,11.30
2018-11-05T04:00:04.827Z,11.30
2018-11-05T04:00:37.412Z,11.20
2018-11-05T04:01:09.987Z,11.30
2018-11-05T04:01:42.556Z,11.20
2018-11-05T04:02:15.115Z,11.20
2018-11-05T04:02:47.689Z,11.20
2018-11-05T04:03:20.373Z,11.20
2018-11-05T04:03:52.850Z,11.20
2018-11-05T04:04:25.398Z,11.20
2018-11-05T04:04:57.992Z,11.20
2018-11-05T04:05:30.598Z,11.20
2018-11-05T04:06:03.146Z,11.20
2018-11-05T04:06:35.752Z,11.20
2018-11-05T04:07:08.346Z,11.20
2018-11-05T04:07:41.014Z,11.20
2018-11-05T04:08:13.550Z,11.20
2018-11-05T04:08:46.111Z,11.20
2018-11-05T04:09:18.674Z,11.20
2018-11-05T04:09:51.263Z,11.20
2018-11-05T04:10:23.874Z,11.30
2018-11-05T04:10:56.462Z,11.30
2018-11-05T04:11:29.030Z,11.20
2018-11-05T04:12:01.582Z,11.20
2018-11-05T04:12:34.156Z,11.30
2018-11-05T04:13:06.718Z,11.30
2018-11-05T04:13:39.328Z,11.30
2018-11-05T04:14:11.930Z,11.30
2018-11-05T04:14:44.525Z,11.30
2018-11-05T04:15:17.169Z,11.30
2018-11-05T04:15:49.720Z,11.40
2018-11-05T04:16:22.283Z,11.30
2018-11-05T04:16:54.838Z,11.30
2018-11-05T04:17:27.423Z,11.40
2018-11-05T04:17:59.974Z,11.30
2018-11-05T04:18:32.541Z,11.30
2018-11-05T04:19:05.218Z,11.30
2018-11-05T04:19:37.778Z,11.30
2018-11-05T04:20:11.960Z,11.30
2018-11-05T04:20:44.560Z,11.30
2018-11-05T04:21:17.155Z,11.30
2018-11-05T04:21:49.722Z,11.30
2018-11-05T04:22:22.305Z,11.30
2018-11-05T04:22:54.867Z,11.30
2018-11-05T04:23:27.450Z,11.30
2018-11-05T04:24:00.034Z,11.30
2018-11-05T04:24:32.595Z,11.30
2018-11-05T04:25:05.272Z,11.30
2018-11-05T04:25:37.857Z,11.20
2018-11-05T04:26:10.463Z,11.20
2018-11-05T04:26:44.254Z,11.30
2018-11-05T04:27:16.803Z,11.30
2018-11-05T04:27:49.419Z,11.30
2018-11-05T04:28:22.026Z,11.30
2018-11-05T04:28:54.566Z,11.30
2018-11-05T04:29:27.132Z,11.20
2018-11-05T04:29:59.703Z,11.20
2018-11-05T04:30:32.288Z,11.30
2018-11-05T04:31:04.946Z,11.20
2018-11-05T04:31:38.098Z,11.20
2018-11-05T04:32:10.723Z,11.20
2018-11-05T04:32:43.595Z,11.20
2018-11-05T04:34:19.478Z,11.20
2018-11-05T04:34:52.042Z,11.20
2018-11-05T04:35:24.591Z,11.20
2018-11-05T04:35:57.147Z,11.20
2018-11-05T04:36:29.791Z,11.20
2018-11-05T04:37:02.390Z,11.20
2018-11-05T04:37:35.098Z,11.20
2018-11-05T04:38:07.656Z,11.20
2018-11-05T04:38:40.279Z,11.20
2018-11-05T04:39:14.091Z,11.20
2018-11-05T04:39:46.665Z,11.20
2018-11-05T04:40:19.227Z,11.20
2018-11-05T04:40:51.813Z,11.20
2018-11-05T04:41:24.399Z,11.20
2018-11-05T04:41:56.959Z,11.20
2018-11-05T04:42:29.564Z,11.20
2018-11-05T04:43:02.192Z,11.20
2018-11-05T04:43:34.743Z,11.10
2018-11-05T04:44:07.676Z,11.20
2018-11-05T04:44:40.267Z,11.10
2018-11-05T04:45:13.414Z,11.20
2018-11-05T04:45:45.974Z,11.20
2018-11-05T04:46:18.572Z,11.20
2018-11-05T04:46:51.146Z,11.20
2018-11-05T04:47:23.690Z,11.20
2018-11-05T04:47:56.280Z,11.20
2018-11-05T04:48:28.901Z,11.20
2018-11-05T04:49:01.455Z,11.20
2018-11-05T04:49:34.036Z,11.20
2018-11-05T04:50:08.166Z,11.20
2018-11-05T04:50:40.723Z,11.20
2018-11-05T04:51:13.274Z,11.20
2018-11-05T04:51:45.880Z,11.20
2018-11-05T04:52:18.430Z,11.20
2018-11-05T04:52:50.982Z,11.20
2018-11-05T04:53:23.571Z,11.20
2018-11-05T04:53:56.177Z,11.10
2018-11-05T04:54:28.735Z,11.20
2018-11-05T04:55:01.379Z,11.20
2018-11-05T04:55:33.942Z,11.20
2018-11-05T04:56:06.519Z,11.20
2018-11-05T04:56:39.116Z,11.20
2018-11-05T04:57:11.701Z,11.20
2018-11-05T04:57:44.277Z,11.20
2018-11-05T04:58:16.831Z,11.20
2018-11-05T04:58:49.391Z,11.10
2018-11-05T04:59:22.008Z,11.10
2018-11-05T04:59:54.601Z,11.20
2018-11-05T05:00:27.187Z,11.20
2018-11-05T05:00:59.750Z,11.20
2018-11-05T05:01:32.290Z,11.20
2018-11-05T05:02:04.856Z,11.20
2018-11-05T05:02:41.362Z,11.20
2018-11-05T05:03:14.176Z,11.20
2018-11-05T05:03:46.760Z,11.20
2018-11-05T05:04:19.359Z,11.10
2018-11-05T05:04:51.972Z,11.20
2018-11-05T05:05:24.572Z,11.20
2018-11-05T05:05:57.193Z,11.20
2018-11-05T05:06:29.787Z,11.20
2018-11-05T05:07:02.347Z,11.20
2018-11-05T05:07:35.087Z,11.20
2018-11-05T05:08:07.673Z,11.20
2018-11-05T05:08:40.237Z,11.20
2018-11-05T05:09:13.262Z,11.20
2018-11-05T05:09:45.893Z,11.30
2018-11-05T05:10:18.524Z,11.30
2018-11-05T05:10:51.112Z,11.30
2018-11-05T05:11:23.666Z,11.30
2018-11-05T05:11:56.235Z,11.30
2018-11-05T05:12:28.870Z,11.20
2018-11-05T05:13:01.459Z,11.20
2018-11-05T05:13:34.022Z,11.20
2018-11-05T05:14:06.622Z,11.20
2018-11-05T05:14:39.167Z,11.20
2018-11-05T05:15:12.074Z,11.20
2018-11-05T05:15:44.659Z,11.20
2018-11-05T05:16:17.329Z,11.10
2018-11-05T05:16:49.857Z,11.10
2018-11-05T05:17:22.448Z,11.10
2018-11-05T05:17:54.998Z,11.10
2018-11-05T05:18:27.568Z,11.10
2018-11-05T05:19:00.164Z,11.10
2018-11-05T05:19:32.742Z,11.10
2018-11-05T05:20:07.524Z,11.10
2018-11-05T05:20:40.118Z,11.10
2018-11-05T05:21:12.722Z,11.10
2018-11-05T05:21:45.290Z,11.10
2018-11-05T05:22:17.929Z,11.10
2018-11-05T05:22:50.617Z,11.10
2018-11-05T05:23:23.078Z,11.10
2018-11-05T05:23:55.653Z,11.10
2018-11-05T05:24:28.255Z,11.10
2018-11-05T05:25:00.843Z,11.20
2018-11-05T05:25:33.394Z,11.10
2018-11-05T05:26:06.011Z,11.20
2018-11-05T05:26:38.591Z,11.20
2018-11-05T05:27:11.264Z,11.20
2018-11-05T05:27:43.867Z,11.10
2018-11-05T05:28:16.418Z,11.10
2018-11-05T05:28:49.015Z,11.10
2018-11-05T05:29:21.572Z,11.10
2018-11-05T05:29:54.137Z,11.10
2018-11-05T05:30:26.687Z,11.10
2018-11-05T05:30:59.246Z,11.10
2018-11-05T05:31:31.792Z,11.10
2018-11-05T05:32:04.627Z,11.10
2018-11-05T05:32:37.183Z,11.10
2018-11-05T05:33:09.834Z,11.10
2018-11-05T05:33:42.424Z,11.10
2018-11-05T05:34:14.954Z,11.10
2018-11-05T05:34:47.502Z,11.10
2018-11-05T05:35:20.124Z,11.20
2018-11-05T05:35:52.703Z,11.10
2018-11-05T05:36:25.271Z,11.10
2018-11-05T05:36:57.860Z,11.10
2018-11-05T05:37:30.454Z,11.10
2018-11-05T05:38:03.043Z,11.10
2018-11-05T05:38:35.632Z,11.20
2018-11-05T05:39:09.179Z,11.20
2018-11-05T05:39:41.767Z,11.20
2018-11-05T05:40:14.368Z,11.20
2018-11-05T05:40:47.055Z,11.10
2018-11-05T05:41:19.692Z,11.10
2018-11-05T05:41:52.194Z,11.10
2018-11-05T05:42:24.754Z,11.10
2018-11-05T05:42:57.339Z,11.10
2018-11-05T05:43:29.949Z,11.10
2018-11-05T05:44:02.584Z,11.10
2018-11-05T05:44:35.182Z,11.10
2018-11-05T05:45:09.015Z,11.20
2018-11-05T05:45:41.614Z,11.10
2018-11-05T05:46:14.205Z,11.10
2018-11-05T05:46:46.763Z,11.10
2018-11-05T05:47:19.340Z,11.20
2018-11-05T05:47:51.891Z,11.20
2018-11-05T05:48:24.499Z,11.20
2018-11-05T05:48:57.066Z,11.20
2018-11-05T05:49:29.673Z,11.20
2018-11-05T05:50:02.639Z,11.20
2018-11-05T05:50:35.163Z,11.20
2018-11-05T05:51:07.719Z,11.20
2018-11-05T05:51:40.372Z,11.20
2018-11-05T05:52:12.935Z,11.10
2018-11-05T05:52:46.906Z,11.20
2018-11-05T05:53:19.478Z,11.10
2018-11-05T05:53:52.094Z,11.10
2018-11-05T05:54:24.642Z,11.10
2018-11-05T05:54:57.190Z,11.10
2018-11-05T05:55:29.771Z,11.10
2018-11-05T05:56:02.360Z,11.10
2018-11-05T05:56:34.934Z,11.10
2018-11-05T05:57:07.576Z,11.10
2018-11-05T05:57:40.154Z,11.10
2018-11-05T05:58:12.695Z,11.10
2018-11-05T05:58:45.319Z,11.10
2018-11-05T05:59:17.911Z,11.10
2018-11-05T05:59:50.568Z,11.10
2018-11-05T06:00:23.088Z,11.10
2018-11-05T06:00:55.683Z,11.10
2018-11-05T06:01:28.271Z,11.10
2018-11-05T06:02:00.916Z,11.20
2018-11-05T06:02:33.470Z,11.10
2018-11-05T06:03:06.046Z,11.20
2018-11-05T06:03:38.644Z,11.20
2018-11-05T06:04:14.752Z,11.20
2018-11-05T06:04:50.045Z,11.20
2018-11-05T06:05:25.027Z,11.20
2018-11-05T06:05:57.713Z,11.20
2018-11-05T06:06:30.361Z,11.20
2018-11-05T06:07:02.908Z,11.20
2018-11-05T06:07:35.562Z,11.10
2018-11-05T06:08:08.142Z,11.20
2018-11-05T06:08:40.721Z,11.20
2018-11-05T06:09:14.096Z,11.20
2018-11-05T06:09:46.674Z,11.20
2018-11-05T06:10:19.282Z,11.20
2018-11-05T06:10:51.877Z,11.10
2018-11-05T06:11:24.476Z,11.00
2018-11-05T06:11:57.027Z,11.00
2018-11-05T06:12:29.620Z,10.90
2018-11-05T06:13:02.184Z,10.90
2018-11-05T06:13:34.787Z,10.90
2018-11-05T06:14:07.435Z,10.90
2018-11-05T06:14:40.019Z,10.80
2018-11-05T06:15:13.794Z,10.80
2018-11-05T06:15:46.474Z,10.80
2018-11-05T06:16:18.998Z,10.80
2018-11-05T06:16:51.596Z,10.70
2018-11-05T06:17:24.182Z,10.70
2018-11-05T06:17:56.799Z,10.70
2018-11-05T06:18:29.375Z,10.70
2018-11-05T06:19:01.947Z,10.70
2018-11-05T06:19:34.515Z,10.70
2018-11-05T06:20:10.435Z,10.70
2018-11-05T06:20:43.022Z,10.70
2018-11-05T06:21:15.594Z,10.70
2018-11-05T06:21:48.224Z,10.70
2018-11-05T06:22:20.855Z,10.70
2018-11-05T06:22:53.502Z,10.60
2018-11-05T06:23:26.071Z,10.60
2018-11-05T06:23:58.674Z,10.60
2018-11-05T06:24:31.302Z,10.60
2018-11-05T06:25:04.756Z,10.60
2018-11-05T06:25:37.399Z,10.60
2018-11-05T06:26:09.997Z,10.60
2018-11-05T06:26:42.782Z,10.60
2018-11-05T06:27:15.365Z,10.70
2018-11-05T06:27:47.987Z,10.70
2018-11-05T06:28:20.588Z,10.60
2018-11-05T06:28:53.154Z,10.60
2018-11-05T06:29:25.740Z,10.60
2018-11-05T06:29:58.312Z,10.60
2018-11-05T06:30:30.888Z,10.70
2018-11-05T06:31:03.508Z,10.60
2018-11-05T06:31:36.093Z,10.70
2018-11-05T06:32:08.704Z,10.70
2018-11-05T06:32:41.667Z,10.70
2018-11-05T06:33:14.267Z,10.60
2018-11-05T06:33:46.864Z,10.60
2018-11-05T06:34:19.480Z,10.70
2018-11-05T06:34:52.098Z,10.60
2018-11-05T06:35:24.748Z,10.60
2018-11-05T06:35:57.256Z,10.70
2018-11-05T06:36:29.843Z,10.60
2018-11-05T06:37:02.415Z,10.60
2018-11-05T06:37:35.026Z,10.60
2018-11-05T06:38:07.637Z,10.60
2018-11-05T06:38:40.215Z,10.60
2018-11-05T06:39:13.241Z,10.60
2018-11-05T06:39:45.807Z,10.60
2018-11-05T06:40:19.364Z,10.60
2018-11-05T06:40:51.938Z,10.60
2018-11-05T06:41:24.624Z,10.60
2018-11-05T06:41:57.215Z,10.60
2018-11-05T06:42:29.742Z,10.60
2018-11-05T06:43:02.380Z,10.60
2018-11-05T06:43:34.986Z,10.60
2018-11-05T06:44:07.622Z,10.60
2018-11-05T06:44:40.269Z,10.60
2018-11-05T06:45:15.384Z,10.60
2018-11-05T06:45:47.992Z,10.70
2018-11-05T06:46:20.596Z,10.60
2018-11-05T06:46:53.188Z,10.60
2018-11-05T06:47:25.788Z,10.60
2018-11-05T06:47:58.402Z,10.60
2018-11-05T06:48:31.015Z,10.70
2018-11-05T06:49:03.745Z,10.60
2018-11-05T06:49:36.280Z,10.60
2018-11-05T06:50:13.065Z,10.60
2018-11-05T06:50:45.684Z,10.60
2018-11-05T06:51:18.329Z,10.60
2018-11-05T06:51:50.915Z,10.70
2018-11-05T06:52:23.499Z,10.60
2018-11-05T06:52:56.188Z,10.60
2018-11-05T06:53:28.718Z,10.60
2018-11-05T06:54:02.124Z,10.60
2018-11-05T06:54:34.710Z,10.70
2018-11-05T06:55:08.617Z,10.70
2018-11-05T06:55:41.223Z,10.60
2018-11-05T06:56:13.847Z,10.60
2018-11-05T06:56:46.459Z,10.60
2018-11-05T06:57:19.056Z,10.60
2018-11-05T06:57:51.751Z,10.60
2018-11-05T06:58:24.258Z,10.60
2018-11-05T06:58:56.855Z,10.60
2018-11-05T06:59:29.455Z,10.60
2018-11-05T07:00:02.051Z,10.70
2018-11-05T07:00:34.663Z,10.70
2018-11-05T07:01:07.263Z,10.70
2018-11-05T07:01:39.847Z,10.70
2018-11-05T07:02:12.414Z,10.70
2018-11-05T07:02:45.347Z,10.70
2018-11-05T07:03:17.927Z,10.70
2018-11-05T07:03:50.508Z,10.70
2018-11-05T07:04:23.135Z,10.70
2018-11-05T07:04:55.762Z,10.70
2018-11-05T07:05:28.358Z,10.70